createdAt,value
2019-05-09T00:00:45.930Z,95.20
2019-05-09T00:03:15.704Z,95.20
2019-05-09T00:05:45.490Z,95.10
2019-05-09T00:08:15.288Z,95.20
2019-05-09T00:10:45.188Z,95.10
2019-05-09T00:13:15.018Z,95.10
2019-05-09T00:15:44.796Z,95.00
2019-05-09T00:18:14.592Z,94.90
2019-05-09T00:20:48.863Z,94.80
2019-05-09T00:23:18.742Z,94.80
2019-05-09T00:25:48.494Z,94.90
2019-05-09T00:28:18.358Z,94.80
2019-05-09T00:30:55.777Z,94.80
2019-05-09T00:33:27.302Z,94.70
2019-05-09T00:35:57.060Z,94.60
2019-05-09T00:38:29.476Z,94.60
2019-05-09T00:40:59.292Z,94.60
2019-05-09T00:43:29.118Z,94.60
2019-05-09T00:46:00.546Z,94.60
2019-05-09T00:48:33.679Z,94.60
2019-05-09T00:51:04.646Z,94.60
2019-05-09T00:53:34.440Z,94.60
2019-05-09T00:56:04.524Z,94.50
2019-05-09T00:58:34.390Z,94.50
2019-05-09T01:01:05.284Z,94.40
2019-05-09T01:03:35.080Z,94.40
2019-05-09T01:06:04.936Z,94.30
2019-05-09T01:08:34.733Z,94.80
2019-05-09T01:11:11.859Z,94.90
2019-05-09T01:13:35.996Z,94.90
2019-05-09T01:16:05.829Z,94.80
2019-05-09T01:18:35.896Z,94.80
2019-05-09T01:21:05.668Z,94.80
2019-05-09T01:23:35.446Z,94.70
2019-05-09T01:26:05.332Z,94.70
2019-05-09T01:28:35.104Z,94.80
2019-05-09T01:31:04.889Z,94.80
2019-05-09T01:33:45.204Z,94.90
2019-05-09T01:36:14.984Z,94.80
2019-05-09T01:38:44.750Z,94.90
2019-05-09T01:41:26.830Z,94.90
2019-05-09T01:43:45.998Z,94.60
2019-05-09T01:46:15.774Z,94.70
2019-05-09T01:48:45.572Z,94.40
2019-05-09T01:51:16.340Z,94.50
2019-05-09T01:53:48.832Z,94.60
2019-05-09T01:56:18.616Z,94.60
2019-05-09T01:58:48.378Z,94.70
2019-05-09T02:01:18.176Z,94.70
2019-05-09T02:03:47.948Z,94.50
2019-05-09T02:06:17.738Z,94.50
2019-05-09T02:08:47.496Z,94.70
2019-05-09T02:11:17.281Z,94.70
2019-05-09T02:13:47.055Z,94.70
2019-05-09T02:16:24.151Z,94.70
2019-05-09T02:18:58.262Z,94.70
2019-05-09T02:21:28.046Z,94.90
2019-05-09T02:23:57.859Z,94.70
2019-05-09T02:26:27.699Z,94.60
2019-05-09T02:28:57.470Z,94.80
2019-05-09T02:31:27.261Z,94.80
2019-05-09T02:33:57.047Z,94.80
2019-05-09T02:36:29.558Z,94.80
2019-05-09T02:38:59.119Z,94.90
2019-05-09T02:41:29.431Z,95.00
2019-05-09T02:43:59.294Z,95.10
2019-05-09T02:46:42.656Z,95.10
2019-05-09T02:49:12.450Z,95.20
2019-05-09T02:51:42.218Z,95.30
2019-05-09T02:54:13.080Z,95.30
2019-05-09T02:56:42.859Z,95.30
2019-05-09T02:59:14.296Z,95.40
2019-05-09T03:01:58.612Z,95.30
2019-05-09T03:04:28.725Z,95.40
2019-05-09T03:06:59.641Z,95.50
2019-05-09T03:09:29.839Z,95.60
2019-05-09T03:12:20.512Z,95.60
2019-05-09T03:14:31.243Z,95.60
2019-05-09T03:17:01.017Z,95.60
2019-05-09T03:19:30.816Z,95.70
2019-05-09T03:22:02.296Z,95.70
2019-05-09T03:24:32.074Z,95.60
2019-05-09T03:27:09.544Z,95.70
2019-05-09T03:29:41.027Z,95.60
2019-05-09T03:32:10.941Z,95.60
2019-05-09T03:34:40.712Z,95.70
2019-05-09T03:37:10.582Z,95.70
2019-05-09T03:39:40.346Z,95.60
2019-05-09T03:42:10.123Z,95.50
2019-05-09T03:44:39.975Z,95.50
2019-05-09T03:47:11.390Z,95.50
2019-05-09T03:49:41.159Z,95.40
2019-05-09T03:52:10.947Z,95.50
2019-05-09T03:54:40.720Z,95.30
2019-05-09T03:57:18.046Z,95.40
2019-05-09T03:59:48.183Z,95.40
2019-05-09T04:02:18.052Z,95.40
2019-05-09T04:04:48.899Z,95.40
2019-05-09T04:07:18.822Z,95.30
2019-05-09T04:09:48.635Z,95.30
2019-05-09T04:12:18.417Z,95.30
2019-05-09T04:14:49.167Z,95.10
2019-05-09T04:17:19.402Z,95.00
2019-05-09T04:19:49.179Z,95.00
2019-05-09T04:22:18.987Z,95.00
2019-05-09T04:24:49.225Z,95.00
2019-05-09T04:27:29.832Z,95.30
2019-05-09T04:30:00.857Z,95.00
2019-05-09T04:32:30.651Z,94.90
2019-05-09T04:35:00.423Z,94.90
2019-05-09T04:37:31.147Z,94.80
2019-05-09T04:40:03.353Z,94.90
2019-05-09T04:42:34.978Z,94.90
2019-05-09T04:45:22.919Z,94.80
2019-05-09T04:47:52.732Z,94.90
2019-05-09T04:50:24.843Z,94.90
2019-05-09T04:52:54.002Z,95.00
2019-05-09T04:55:27.319Z,95.10
2019-05-09T04:57:57.632Z,95.20
2019-05-09T05:00:37.714Z,95.30
2019-05-09T05:03:08.025Z,95.30
2019-05-09T05:05:40.192Z,95.40
2019-05-09T05:08:09.440Z,95.40
2019-05-09T05:10:39.294Z,95.40
2019-05-09T05:13:22.882Z,95.30
2019-05-09T05:15:40.606Z,94.80
2019-05-09T05:18:10.407Z,94.60
2019-05-09T05:20:40.195Z,94.60
2019-05-09T05:23:11.627Z,94.60
2019-05-09T05:25:41.407Z,94.50
2019-05-09T05:28:11.209Z,94.40
2019-05-09T05:30:40.982Z,94.40
2019-05-09T05:33:24.760Z,94.40
2019-05-09T05:35:57.401Z,94.50
2019-05-09T05:38:27.618Z,94.40
2019-05-09T05:40:57.895Z,94.30
2019-05-09T05:43:40.585Z,94.10
2019-05-09T05:46:01.009Z,94.00
2019-05-09T05:48:33.421Z,94.10
2019-05-09T05:51:03.196Z,93.90
2019-05-09T05:53:32.989Z,93.90
2019-05-09T05:56:02.832Z,93.70
2019-05-09T05:58:32.628Z,93.20
2019-05-09T06:01:04.577Z,93.40
2019-05-09T06:03:33.892Z,93.00
2019-05-09T06:06:03.687Z,92.90
2019-05-09T06:08:33.495Z,93.00
2019-05-09T06:11:03.365Z,92.90
2019-05-09T06:13:33.180Z,92.80
2019-05-09T06:16:02.956Z,92.70
2019-05-09T06:18:32.793Z,92.50
2019-05-09T06:21:02.567Z,92.20
2019-05-09T06:23:32.348Z,92.00
2019-05-09T06:26:02.259Z,91.80
2019-05-09T06:28:32.216Z,92.10
2019-05-09T06:31:02.353Z,92.40
2019-05-09T06:33:32.151Z,92.40
2019-05-09T06:36:01.947Z,92.50
2019-05-09T06:38:31.810Z,92.50
2019-05-09T06:41:01.608Z,92.50
2019-05-09T06:43:33.032Z,92.40
2019-05-09T06:46:13.458Z,92.60
2019-05-09T06:48:43.234Z,92.50
2019-05-09T06:51:13.028Z,92.50
2019-05-09T06:53:42.800Z,92.50
2019-05-09T06:56:12.911Z,92.40
2019-05-09T06:58:43.418Z,92.40
2019-05-09T07:01:14.856Z,91.80
2019-05-09T07:04:01.748Z,91.40
2019-05-09T07:06:44.963Z,91.50
2019-05-09T07:09:31.527Z,91.40
2019-05-09T07:12:01.979Z,91.10
2019-05-09T07:14:37.949Z,91.20
2019-05-09T07:17:05.108Z,91.20
2019-05-09T07:19:34.902Z,90.90
2019-05-09T07:22:15.301Z,90.70
2019-05-09T07:25:09.800Z,90.80
2019-05-09T07:27:40.776Z,90.60
2019-05-09T07:30:29.106Z,90.30
2019-05-09T07:33:19.303Z,90.00
2019-05-09T07:35:49.441Z,90.00
2019-05-09T07:38:29.229Z,90.00
2019-05-09T07:41:00.137Z,89.60
2019-05-09T07:43:29.971Z,89.10
2019-05-09T07:46:08.827Z,89.00
2019-05-09T07:48:40.657Z,89.40
2019-05-09T07:51:10.566Z,89.40
2019-05-09T07:53:40.335Z,89.80
2019-05-09T07:56:10.127Z,90.00
2019-05-09T07:58:39.904Z,89.80
2019-05-09T08:01:09.733Z,89.50
2019-05-09T08:03:39.557Z,89.00
2019-05-09T08:06:09.497Z,89.30
2019-05-09T08:08:39.279Z,89.30
2019-05-09T08:11:09.185Z,89.30
2019-05-09T08:13:39.485Z,89.40
2019-05-09T08:16:14.158Z,90.00
2019-05-09T08:18:41.084Z,90.10
2019-05-09T08:21:10.870Z,90.30
2019-05-09T08:23:40.693Z,89.60
2019-05-09T08:26:10.465Z,88.60
2019-05-09T08:28:40.251Z,88.50
2019-05-09T08:31:10.026Z,88.20
2019-05-09T08:33:39.909Z,88.60
2019-05-09T08:36:09.699Z,88.50
2019-05-09T08:38:40.556Z,89.10
2019-05-09T08:41:11.800Z,89.40
2019-05-09T08:43:42.081Z,89.60
2019-05-09T08:46:12.327Z,89.70
2019-05-09T08:48:42.127Z,90.00
2019-05-09T08:51:18.035Z,90.30
2019-05-09T08:53:48.298Z,90.20
2019-05-09T08:56:18.198Z,90.00
2019-05-09T08:58:48.628Z,89.40
2019-05-09T09:01:29.533Z,89.90
2019-05-09T09:03:50.101Z,89.80
2019-05-09T09:06:19.897Z,90.20
2019-05-09T09:08:49.663Z,90.00
2019-05-09T09:11:19.451Z,89.30
2019-05-09T09:13:49.248Z,89.10
2019-05-09T09:16:22.422Z,87.80
2019-05-09T09:18:50.535Z,87.20
2019-05-09T09:21:20.331Z,87.20
2019-05-09T09:23:50.907Z,87.10
2019-05-09T09:26:20.847Z,86.60
2019-05-09T09:28:50.671Z,86.30
2019-05-09T09:31:20.467Z,86.00
2019-05-09T09:33:50.249Z,85.70
2019-05-09T09:36:20.036Z,85.30
2019-05-09T09:38:49.817Z,85.30
2019-05-09T09:41:19.619Z,85.30
2019-05-09T09:43:49.397Z,85.00
2019-05-09T09:46:19.333Z,84.30
2019-05-09T09:48:49.108Z,85.10
2019-05-09T09:51:18.941Z,85.10
2019-05-09T09:53:49.163Z,85.10
2019-05-09T09:56:22.187Z,84.90
2019-05-09T09:59:02.388Z,85.70
2019-05-09T10:01:39.901Z,86.20
2019-05-09T10:04:23.830Z,86.10
2019-05-09T10:06:52.814Z,86.00
2019-05-09T10:09:20.368Z,86.20
2019-05-09T10:11:50.232Z,85.70
2019-05-09T10:14:36.768Z,86.40
2019-05-09T10:17:11.216Z,86.20
2019-05-09T10:19:42.638Z,86.60
2019-05-09T10:22:14.084Z,87.30
2019-05-09T10:24:43.882Z,87.70
2019-05-09T10:27:18.474Z,86.30
2019-05-09T10:29:48.630Z,86.10
2019-05-09T10:32:18.551Z,85.70
2019-05-09T10:34:49.033Z,85.50
2019-05-09T10:37:19.011Z,85.20
2019-05-09T10:39:49.231Z,85.70
2019-05-09T10:42:32.881Z,86.10
2019-05-09T10:45:19.708Z,86.30
2019-05-09T10:47:49.515Z,87.00
2019-05-09T10:50:19.364Z,86.90
2019-05-09T10:52:49.156Z,86.50
2019-05-09T10:55:18.929Z,86.10
2019-05-09T10:57:52.391Z,86.00
2019-05-09T11:00:20.355Z,86.40
2019-05-09T11:02:51.237Z,85.00
2019-05-09T11:05:21.020Z,84.40
2019-05-09T11:07:50.824Z,84.60
2019-05-09T11:10:28.327Z,84.80
2019-05-09T11:12:52.092Z,85.10
2019-05-09T11:15:21.882Z,84.50
2019-05-09T11:17:51.675Z,85.40
2019-05-09T11:20:21.448Z,85.00
2019-05-09T11:22:51.248Z,85.40
2019-05-09T11:25:21.035Z,84.90
2019-05-09T11:28:06.797Z,85.10
2019-05-09T11:30:22.407Z,84.80
2019-05-09T11:32:52.214Z,84.30
2019-05-09T11:35:22.104Z,84.70
2019-05-09T11:37:52.143Z,84.10
2019-05-09T11:40:21.922Z,84.20
2019-05-09T11:42:51.715Z,84.70
2019-05-09T11:45:21.530Z,85.00
2019-05-09T11:47:51.362Z,84.90
2019-05-09T11:50:23.242Z,84.90
2019-05-09T11:52:52.631Z,84.50
2019-05-09T11:55:32.406Z,84.90
2019-05-09T11:57:53.900Z,84.40
2019-05-09T12:00:23.858Z,83.30
2019-05-09T12:02:53.641Z,82.90
2019-05-09T12:05:23.517Z,82.00
2019-05-09T12:07:53.443Z,82.80
2019-05-09T12:10:23.291Z,82.20
2019-05-09T12:12:53.078Z,81.80
2019-05-09T12:15:22.856Z,81.30
2019-05-09T12:17:58.238Z,81.80
2019-05-09T12:20:24.128Z,81.90
2019-05-09T12:22:53.920Z,81.70
2019-05-09T12:25:23.714Z,81.80
2019-05-09T12:27:53.508Z,81.50
2019-05-09T12:30:23.281Z,81.80
2019-05-09T12:32:53.075Z,82.30
2019-05-09T12:35:22.852Z,82.30
2019-05-09T12:37:52.651Z,81.70
2019-05-09T12:40:23.507Z,81.90
2019-05-09T12:42:53.301Z,81.70
2019-05-09T12:45:23.230Z,81.80
2019-05-09T12:48:06.159Z,81.60
2019-05-09T12:50:24.530Z,82.10
2019-05-09T12:52:54.739Z,82.30
2019-05-09T12:55:24.519Z,82.40
2019-05-09T12:57:54.309Z,82.40
2019-05-09T13:00:24.331Z,81.60
2019-05-09T13:02:54.107Z,81.50
2019-05-09T13:05:23.904Z,80.80
2019-05-09T13:07:53.679Z,80.80
2019-05-09T13:10:23.473Z,80.20
2019-05-09T13:12:53.251Z,80.00
2019-05-09T13:15:24.858Z,79.80
2019-05-09T13:17:54.688Z,79.30
2019-05-09T13:20:24.494Z,79.50
2019-05-09T13:22:54.279Z,79.00
2019-05-09T13:25:24.090Z,78.80
2019-05-09T13:27:53.856Z,80.10
2019-05-09T13:30:23.697Z,79.90
2019-05-09T13:32:53.524Z,80.10
2019-05-09T13:35:23.320Z,79.80
2019-05-09T13:37:53.100Z,80.10
2019-05-09T13:40:22.893Z,79.40
2019-05-09T13:42:52.741Z,79.30
2019-05-09T13:45:22.533Z,79.70
2019-05-09T13:47:52.323Z,79.30
2019-05-09T13:50:22.113Z,80.10
2019-05-09T13:52:51.893Z,80.40
2019-05-09T13:55:21.683Z,80.40
2019-05-09T13:57:51.463Z,81.00
2019-05-09T14:00:21.287Z,81.00
2019-05-09T14:02:51.132Z,81.10
2019-05-09T14:05:20.908Z,81.10
2019-05-09T14:07:54.832Z,81.30
2019-05-09T14:10:22.254Z,81.30
2019-05-09T14:13:05.523Z,81.50
2019-05-09T14:15:23.548Z,81.20
2019-05-09T14:17:54.151Z,82.00
2019-05-09T14:20:24.007Z,82.40
2019-05-09T14:22:53.803Z,82.00
2019-05-09T14:25:24.676Z,82.30
2019-05-09T14:27:54.475Z,81.90
2019-05-09T14:30:24.260Z,82.00
2019-05-09T14:32:54.067Z,81.00
2019-05-09T14:35:23.839Z,80.00
2019-05-09T14:37:53.632Z,79.10
2019-05-09T14:40:23.507Z,80.00
2019-05-09T14:42:53.300Z,79.60
2019-05-09T14:45:23.156Z,79.60
2019-05-09T14:47:52.940Z,79.80
2019-05-09T14:50:22.743Z,79.90
2019-05-09T14:52:52.543Z,80.60
2019-05-09T14:55:22.343Z,81.30
2019-05-09T14:57:52.116Z,81.10
2019-05-09T15:00:22.072Z,81.10
2019-05-09T15:02:51.849Z,81.40
2019-05-09T15:05:21.644Z,80.90
2019-05-09T15:07:53.756Z,81.30
2019-05-09T15:10:22.907Z,81.90
2019-05-09T15:12:52.714Z,82.70
2019-05-09T15:15:22.554Z,83.00
2019-05-09T15:17:52.352Z,82.90
2019-05-09T15:20:22.127Z,83.30
2019-05-09T15:22:51.918Z,83.20
2019-05-09T15:25:21.721Z,83.20
2019-05-09T15:27:51.559Z,83.10
2019-05-09T15:30:21.414Z,82.90
2019-05-09T15:32:52.018Z,82.30
2019-05-09T15:35:22.153Z,82.10
2019-05-09T15:37:51.946Z,79.70
2019-05-09T15:40:22.800Z,76.50
2019-05-09T15:42:52.591Z,73.50
2019-05-09T15:45:23.152Z,72.10
2019-05-09T15:47:52.963Z,70.60
2019-05-09T15:50:23.433Z,67.40
2019-05-09T15:52:53.492Z,68.00
2019-05-09T15:55:23.309Z,65.80
2019-05-09T15:57:53.092Z,67.10
2019-05-09T16:00:22.947Z,67.00
2019-05-09T16:02:52.829Z,67.10
2019-05-09T16:05:22.682Z,65.10
2019-05-09T16:07:52.860Z,65.90
2019-05-09T16:10:22.639Z,67.20
2019-05-09T16:12:52.419Z,66.80
2019-05-09T16:15:22.227Z,65.90
2019-05-09T16:17:52.108Z,67.00
2019-05-09T16:20:36.323Z,67.80
2019-05-09T16:22:56.977Z,67.40
2019-05-09T16:25:24.952Z,69.20
2019-05-09T16:27:54.809Z,69.00
2019-05-09T16:30:24.596Z,68.70
2019-05-09T16:32:54.439Z,69.60
2019-05-09T16:35:24.237Z,70.10
2019-05-09T16:38:05.013Z,71.30
2019-05-09T16:40:27.830Z,71.20
2019-05-09T16:42:58.109Z,71.40
2019-05-09T16:45:28.779Z,71.80
2019-05-09T16:47:58.857Z,72.90
2019-05-09T16:50:28.643Z,72.90
2019-05-09T16:52:58.637Z,73.50
2019-05-09T16:55:31.362Z,73.90
2019-05-09T16:58:01.305Z,74.10
2019-05-09T17:00:34.079Z,74.80
2019-05-09T17:03:04.656Z,75.30
2019-05-09T17:05:34.449Z,76.10
2019-05-09T17:08:04.303Z,76.70
2019-05-09T17:10:34.098Z,76.50
2019-05-09T17:13:03.900Z,77.30
2019-05-09T17:15:33.687Z,78.30
2019-05-09T17:18:03.708Z,78.50
2019-05-09T17:20:50.660Z,78.60
2019-05-09T17:23:22.313Z,79.00
2019-05-09T17:25:52.111Z,78.80
2019-05-09T17:28:21.973Z,79.80
2019-05-09T17:30:51.895Z,79.20
2019-05-09T17:33:21.760Z,78.90
2019-05-09T17:35:51.599Z,78.40
2019-05-09T17:38:21.455Z,78.20
2019-05-09T17:40:51.255Z,78.30
2019-05-09T17:43:21.051Z,78.20
2019-05-09T17:45:50.838Z,78.10
2019-05-09T17:48:21.600Z,79.30
2019-05-09T17:50:51.385Z,79.10
2019-05-09T17:53:21.186Z,79.20
2019-05-09T17:55:50.980Z,79.30
2019-05-09T17:58:29.277Z,79.10
2019-05-09T18:00:52.255Z,79.20
2019-05-09T18:03:22.106Z,79.80
2019-05-09T18:05:52.715Z,79.00
2019-05-09T18:08:22.578Z,78.60
2019-05-09T18:10:52.379Z,78.20
2019-05-09T18:13:23.903Z,77.70
2019-05-09T18:15:53.999Z,77.70
2019-05-09T18:18:23.791Z,77.30
2019-05-09T18:20:53.595Z,77.50
2019-05-09T18:23:23.387Z,77.50
2019-05-09T18:25:53.237Z,77.90
2019-05-09T18:28:23.045Z,77.80
2019-05-09T18:30:52.918Z,78.30
2019-05-09T18:33:24.360Z,78.20
2019-05-09T18:35:54.125Z,78.70
2019-05-09T18:38:28.114Z,79.70
2019-05-09T18:40:59.202Z,81.30
2019-05-09T18:43:28.965Z,82.30
2019-05-09T18:45:58.771Z,83.10
2019-05-09T18:48:29.624Z,84.30
2019-05-09T18:50:59.419Z,85.70
2019-05-09T18:53:29.370Z,87.40
2019-05-09T18:55:59.168Z,89.40
2019-05-09T18:58:28.977Z,90.30
2019-05-09T19:00:58.765Z,91.50
2019-05-09T19:03:28.567Z,92.80
2019-05-09T19:05:58.361Z,93.60
2019-05-09T19:08:28.160Z,94.10
2019-05-09T19:10:57.963Z,94.40
2019-05-09T19:13:27.798Z,95.00
2019-05-09T19:16:02.219Z,95.10
2019-05-09T19:18:36.658Z,95.20
2019-05-09T19:21:13.808Z,95.10
2019-05-09T19:23:44.604Z,94.80
2019-05-09T19:26:36.670Z,94.90
2019-05-09T19:29:07.846Z,94.90
2019-05-09T19:31:38.430Z,94.90
2019-05-09T19:34:08.465Z,95.10
2019-05-09T19:36:38.331Z,95.10
2019-05-09T19:39:09.747Z,95.10
2019-05-09T19:41:39.712Z,95.10
2019-05-09T19:44:09.565Z,95.20
2019-05-09T19:46:39.806Z,95.30
2019-05-09T19:49:09.617Z,95.40
2019-05-09T19:51:39.483Z,95.40
2019-05-09T19:54:09.268Z,95.40
2019-05-09T19:56:39.073Z,95.20
2019-05-09T19:59:08.907Z,95.20
2019-05-09T20:01:38.746Z,95.20
2019-05-09T20:04:08.601Z,95.20
2019-05-09T20:06:38.481Z,95.20
2019-05-09T20:09:10.020Z,95.20
2019-05-09T20:11:41.593Z,95.00
2019-05-09T20:14:13.090Z,94.90
2019-05-09T20:16:47.028Z,95.00
2019-05-09T20:19:16.889Z,95.00
2019-05-09T20:21:46.723Z,95.10
2019-05-09T20:24:16.620Z,95.20
2019-05-09T20:26:46.574Z,95.20
2019-05-09T20:29:16.359Z,95.50
2019-05-09T20:31:46.149Z,95.20
2019-05-09T20:34:16.074Z,95.20
2019-05-09T20:36:45.875Z,95.20
2019-05-09T20:39:17.026Z,95.30
2019-05-09T20:41:46.998Z,95.30
2019-05-09T20:44:17.052Z,95.30
2019-05-09T20:46:47.020Z,95.30
2019-05-09T20:49:17.023Z,95.30
2019-05-09T20:51:46.989Z,95.30
2019-05-09T20:54:20.909Z,95.40
2019-05-09T20:56:48.703Z,95.50
2019-05-09T20:59:18.700Z,95.50
2019-05-09T21:01:48.687Z,95.70
2019-05-09T21:04:18.669Z,96.00
2019-05-09T21:06:48.639Z,95.90
2019-05-09T21:09:18.732Z,95.90
2019-05-09T21:11:48.771Z,95.90
2019-05-09T21:14:18.769Z,95.70
2019-05-09T21:16:48.743Z,95.60
2019-05-09T21:19:18.724Z,95.60
2019-05-09T21:21:48.783Z,95.70
2019-05-09T21:24:18.811Z,95.70
2019-05-09T21:26:48.785Z,95.60
2019-05-09T21:29:18.765Z,95.60
2019-05-09T21:31:48.762Z,95.60
2019-05-09T21:34:18.769Z,95.50
2019-05-09T21:36:48.555Z,95.50
2019-05-09T21:39:20.051Z,95.60
2019-05-09T21:41:49.823Z,95.60
2019-05-09T21:44:19.630Z,95.60
2019-05-09T21:46:49.428Z,95.60
2019-05-09T21:49:20.019Z,95.70
2019-05-09T21:51:49.831Z,95.60
2019-05-09T21:54:19.607Z,95.70
2019-05-09T21:56:50.480Z,95.70
2019-05-09T21:59:20.270Z,95.70
2019-05-09T22:01:51.221Z,95.70
2019-05-09T22:04:22.723Z,95.80
2019-05-09T22:06:52.523Z,95.80
2019-05-09T22:09:22.326Z,95.90
2019-05-09T22:11:52.139Z,96.10
2019-05-09T22:14:21.959Z,95.80
2019-05-09T22:16:52.119Z,95.80
2019-05-09T22:19:21.911Z,95.80
2019-05-09T22:21:51.817Z,95.80
2019-05-09T22:24:21.610Z,95.80
2019-05-09T22:26:51.416Z,95.80
2019-05-09T22:29:21.194Z,95.80
2019-05-09T22:31:51.039Z,96.00
2019-05-09T22:34:20.819Z,95.70
2019-05-09T22:36:50.690Z,95.50
2019-05-09T22:39:20.464Z,95.40
2019-05-09T22:41:50.343Z,95.50
2019-05-09T22:44:20.128Z,95.20
2019-05-09T22:46:49.927Z,95.20
2019-05-09T22:49:19.735Z,95.20
2019-05-09T22:51:49.506Z,95.20
2019-05-09T22:54:19.308Z,95.10
2019-05-09T22:56:49.112Z,94.80
2019-05-09T22:59:18.920Z,94.80
2019-05-09T23:01:48.684Z,94.80
2019-05-09T23:04:18.481Z,94.90
2019-05-09T23:06:48.266Z,94.70
2019-05-09T23:09:18.079Z,94.60
2019-05-09T23:11:47.858Z,94.50
2019-05-09T23:14:17.652Z,94.40
2019-05-09T23:16:50.446Z,94.30
2019-05-09T23:19:19.897Z,94.30
2019-05-09T23:21:49.678Z,94.40
2019-05-09T23:24:28.598Z,94.30
2019-05-09T23:26:52.702Z,94.30
2019-05-09T23:29:22.502Z,94.30
2019-05-09T23:32:09.021Z,94.40
2019-05-09T23:34:39.100Z,94.40
2019-05-09T23:37:08.915Z,94.40
2019-05-09T23:39:49.172Z,94.40
2019-05-09T23:42:18.942Z,94.20
2019-05-09T23:44:48.763Z,94.20
2019-05-09T23:47:18.515Z,93.90
2019-05-09T23:49:49.195Z,93.90
2019-05-09T23:52:19.057Z,93.90
2019-05-09T23:55:06.625Z,93.80
2019-05-09T23:57:54.430Z,93.80
